createdAt,value
2022-11-28T00:01:39.986Z,21.58
2022-11-28T00:05:21.653Z,24.70
2022-11-28T00:09:03.533Z,22.45
2022-11-28T00:12:45.221Z,18.48
2022-11-28T00:16:26.972Z,17.45
2022-11-28T00:20:08.893Z,20.65
2022-11-28T00:23:50.702Z,15.32
2022-11-28T00:27:34.533Z,20.45
2022-11-28T00:34:59.254Z,14.38
2022-11-28T00:38:41.372Z,23.23
2022-11-28T00:42:23.202Z,18.45
2022-11-28T00:46:05.512Z,17.83
2022-11-28T00:49:47.224Z,19.73
2022-11-28T00:53:29.112Z,14.68
2022-11-28T00:57:10.831Z,15.13
2022-11-28T01:00:52.557Z,11.70
2022-11-28T01:04:34.258Z,14.70
2022-11-28T01:08:15.939Z,12.98
2022-11-28T01:11:57.808Z,20.20
2022-11-28T01:15:40.671Z,17.00
2022-11-28T01:19:22.382Z,13.17
2022-11-28T01:23:04.464Z,14.48
2022-11-28T01:26:47.258Z,18.08
2022-11-28T01:30:28.961Z,12.10
2022-11-28T01:34:11.665Z,12.90
2022-11-28T01:37:53.487Z,15.52
2022-11-28T01:41:35.244Z,16.25
2022-11-28T01:45:22.931Z,15.27
2022-11-28T01:49:14.191Z,15.80
2022-11-28T01:52:57.293Z,15.90
2022-11-28T01:56:47.746Z,16.13
2022-11-28T02:00:29.656Z,20.27
2022-11-28T02:04:12.026Z,13.02
2022-11-28T02:07:53.855Z,17.15
2022-11-28T02:11:56.793Z,17.70
2022-11-28T02:15:47.625Z,10.60
2022-11-28T02:19:44.108Z,18.50
2022-11-28T02:24:02.776Z,9.90
2022-11-28T02:27:56.774Z,14.60
2022-11-28T02:35:37.840Z,13.95
2022-11-28T02:39:26.398Z,14.63
2022-11-28T02:43:14.012Z,14.27
2022-11-28T02:47:22.620Z,14.30
2022-11-28T02:51:14.771Z,12.85
2022-11-28T02:54:56.493Z,15.25
2022-11-28T02:58:38.248Z,12.55
2022-11-28T03:02:28.848Z,11.05
2022-11-28T03:06:35.874Z,16.33
2022-11-28T03:10:30.423Z,10.77
2022-11-28T03:14:18.006Z,13.00
2022-11-28T03:18:18.313Z,10.85
2022-11-28T03:22:18.547Z,12.48
2022-11-28T03:26:14.924Z,14.32
2022-11-28T03:29:58.741Z,12.18
2022-11-28T03:37:30.105Z,10.98
2022-11-28T03:41:16.407Z,14.75
2022-11-28T03:45:04.629Z,14.23
2022-11-28T03:48:48.045Z,13.52
2022-11-28T03:52:32.714Z,15.05
2022-11-28T03:56:21.124Z,16.48
2022-11-28T04:00:06.135Z,14.05
2022-11-28T04:04:16.882Z,9.02
2022-11-28T04:08:10.741Z,9.95
2022-11-28T04:11:54.741Z,15.23
2022-11-28T04:16:14.248Z,14.35
2022-11-28T04:20:01.001Z,15.55
2022-11-28T04:23:44.237Z,14.57
2022-11-28T04:27:37.464Z,8.80
2022-11-28T04:31:19.266Z,14.05
2022-11-28T04:35:09.259Z,12.85
2022-11-28T04:38:56.361Z,11.90
2022-11-28T04:42:52.629Z,11.90
2022-11-28T04:46:41.097Z,12.90
2022-11-28T04:50:23.736Z,12.50
2022-11-28T04:54:25.880Z,12.43
2022-11-28T04:58:13.385Z,11.30
2022-11-28T05:01:55.403Z,13.93
2022-11-28T05:05:45.774Z,12.68
2022-11-28T05:09:27.473Z,11.82
2022-11-28T05:13:09.191Z,9.00
2022-11-28T05:16:51.087Z,11.93
2022-11-28T05:20:32.877Z,7.50
2022-11-28T05:24:15.828Z,12.10
2022-11-28T05:27:57.484Z,7.93
2022-11-28T05:31:40.446Z,13.45
2022-11-28T05:35:22.194Z,8.90
2022-11-28T05:39:03.975Z,9.80
2022-11-28T05:42:45.747Z,9.20
2022-11-28T05:46:27.592Z,5.93
2022-11-28T05:50:09.596Z,12.85
2022-11-28T05:53:51.336Z,5.28
2022-11-28T05:57:33.229Z,6.80
2022-11-28T06:01:17.027Z,5.07
2022-11-28T06:08:49.425Z,9.43
2022-11-28T06:12:32.141Z,10.18
2022-11-28T06:16:15.831Z,9.70
2022-11-28T06:23:39.263Z,6.93
2022-11-28T06:27:20.972Z,7.60
2022-11-28T06:31:03.087Z,9.18
2022-11-28T06:34:46.058Z,10.75
2022-11-28T06:38:28.432Z,7.40
2022-11-28T06:42:10.115Z,8.93
2022-11-28T06:45:51.951Z,8.80
2022-11-28T06:49:33.677Z,10.77
2022-11-28T06:53:15.699Z,8.27
2022-11-28T06:56:57.364Z,10.32
2022-11-28T07:00:39.100Z,8.95
2022-11-28T07:04:21.970Z,8.15
2022-11-28T07:08:03.897Z,9.03
2022-11-28T07:11:46.043Z,7.90
2022-11-28T07:15:27.876Z,12.02
2022-11-28T07:19:10.974Z,10.65
2022-11-28T07:22:53.712Z,7.55
2022-11-28T07:26:37.931Z,9.63
2022-11-28T07:30:20.232Z,6.22
2022-11-28T07:34:03.554Z,8.95
2022-11-28T07:37:45.388Z,9.10
2022-11-28T07:41:28.536Z,8.70
2022-11-28T07:45:10.895Z,9.48
2022-11-28T07:48:52.633Z,14.02
2022-11-28T07:52:35.529Z,10.25
2022-11-28T07:56:19.133Z,12.00
2022-11-28T08:00:00.858Z,10.88
2022-11-28T08:03:44.828Z,10.57
2022-11-28T08:07:26.628Z,8.18
2022-11-28T08:11:08.899Z,9.20
2022-11-28T08:14:50.611Z,7.43
2022-11-28T08:18:32.615Z,16.27
2022-11-28T08:22:15.566Z,10.10
2022-11-28T08:25:57.330Z,17.30
2022-11-28T08:29:39.030Z,10.18
2022-11-28T08:33:24.614Z,11.25
2022-11-28T08:37:06.313Z,8.90
2022-11-28T08:40:47.990Z,10.13
2022-11-28T08:44:31.825Z,9.73
2022-11-28T08:52:16.240Z,13.75
2022-11-28T08:55:57.997Z,8.45
2022-11-28T09:00:19.474Z,25.92
2022-11-28T09:04:57.570Z,10.00
2022-11-28T09:08:39.529Z,11.75
2022-11-28T09:12:43.214Z,6.50
2022-11-28T09:16:27.923Z,10.95
2022-11-28T09:20:10.024Z,8.20
2022-11-28T09:24:29.281Z,9.07
2022-11-28T09:28:10.982Z,6.60
2022-11-28T09:32:13.581Z,7.18
2022-11-28T09:35:55.592Z,9.57
2022-11-28T09:39:50.576Z,11.93
2022-11-28T09:43:42.992Z,13.18
2022-11-28T09:47:34.877Z,10.75
2022-11-28T09:51:22.487Z,13.52
2022-11-28T09:55:12.659Z,10.80
2022-11-28T09:58:55.992Z,9.60
2022-11-28T10:02:49.055Z,8.52
2022-11-28T10:07:01.395Z,9.27
2022-11-28T10:10:58.362Z,10.65
2022-11-28T10:14:49.188Z,8.55
2022-11-28T10:18:35.333Z,12.25
2022-11-28T10:22:18.980Z,8.63
2022-11-28T10:26:39.301Z,10.43
2022-11-28T10:30:23.433Z,14.80
2022-11-28T10:34:58.440Z,7.38
2022-11-28T10:38:40.137Z,11.40
2022-11-28T10:42:45.297Z,11.73
2022-11-28T10:46:39.281Z,10.07
2022-11-28T10:50:32.066Z,9.20
2022-11-28T10:54:38.582Z,9.23
2022-11-28T10:58:48.091Z,7.65
2022-11-28T11:02:56.689Z,6.75
2022-11-28T11:06:47.744Z,6.70
2022-11-28T11:10:51.279Z,11.07
2022-11-28T11:14:37.453Z,10.68
2022-11-28T11:18:30.663Z,10.60
2022-11-28T11:22:28.432Z,8.75
2022-11-28T11:26:20.931Z,11.15
2022-11-28T11:30:16.526Z,10.65
2022-11-28T11:34:17.243Z,13.73
2022-11-28T11:38:26.685Z,8.13
2022-11-28T11:42:30.749Z,9.35
2022-11-28T11:46:16.206Z,13.07
2022-11-28T11:50:05.296Z,6.43
2022-11-28T11:53:48.028Z,8.57
2022-11-28T11:57:37.038Z,10.00
2022-11-28T12:01:22.007Z,7.10
2022-11-28T12:05:21.301Z,12.50
2022-11-28T12:09:39.624Z,9.93
2022-11-28T12:13:23.601Z,5.53
2022-11-28T12:17:47.817Z,9.05
2022-11-28T12:21:34.081Z,7.88
2022-11-28T12:25:21.893Z,10.55
2022-11-28T12:29:22.248Z,8.38
2022-11-28T12:33:15.742Z,6.75
2022-11-28T12:37:09.639Z,8.98
2022-11-28T12:41:06.239Z,10.85
2022-11-28T12:45:18.540Z,8.40
2022-11-28T12:49:17.538Z,7.10
2022-11-28T12:53:28.376Z,6.22
2022-11-28T12:57:33.471Z,9.25
2022-11-28T13:01:33.307Z,6.85
2022-11-28T13:05:39.139Z,9.65
2022-11-28T13:09:34.057Z,7.82
2022-11-28T13:13:22.906Z,11.25
2022-11-28T13:17:19.802Z,8.52
2022-11-28T13:21:04.292Z,22.13
2022-11-28T13:24:56.532Z,4.75
2022-11-28T13:28:46.117Z,8.55
2022-11-28T13:32:40.652Z,12.45
2022-11-28T13:40:45.517Z,11.02
2022-11-28T13:44:42.489Z,7.28
2022-11-28T13:49:05.964Z,7.35
2022-11-28T13:53:01.174Z,6.88
2022-11-28T13:56:43.325Z,11.30
2022-11-28T14:00:25.279Z,10.55
2022-11-28T14:04:09.751Z,5.50
2022-11-28T14:07:51.513Z,5.72
2022-11-28T14:11:57.633Z,8.13
2022-11-28T14:16:07.813Z,5.80
2022-11-28T14:20:24.227Z,6.50
2022-11-28T14:24:28.402Z,5.72
2022-11-28T14:32:29.826Z,12.18
2022-11-28T14:36:26.505Z,6.80
2022-11-28T14:40:46.789Z,11.25
2022-11-28T14:44:57.127Z,8.18
2022-11-28T14:48:41.992Z,7.18
2022-11-28T14:52:41.621Z,7.25
2022-11-28T14:56:25.842Z,11.80
2022-11-28T15:00:15.124Z,6.03
2022-11-28T15:04:15.108Z,7.78
2022-11-28T15:08:10.813Z,8.65
2022-11-28T15:12:17.237Z,8.52
2022-11-28T15:15:58.977Z,7.60
2022-11-28T15:19:44.552Z,11.07
2022-11-28T15:23:32.898Z,10.88
2022-11-28T15:27:25.228Z,13.95
2022-11-28T15:31:07.065Z,11.98
2022-11-28T15:34:59.921Z,8.30
2022-11-28T15:38:41.938Z,12.30
2022-11-28T15:42:30.955Z,11.93
2022-11-28T15:46:31.473Z,10.15
2022-11-28T15:50:13.205Z,12.05
2022-11-28T15:54:27.066Z,12.65
2022-11-28T15:58:23.578Z,7.30
2022-11-28T16:02:29.386Z,8.60
2022-11-28T16:06:11.165Z,20.02
2022-11-28T16:10:01.232Z,19.52
2022-11-28T16:13:43.459Z,17.77
2022-11-28T16:17:32.669Z,18.25
2022-11-28T16:21:14.573Z,13.40
2022-11-28T16:25:00.060Z,29.10
2022-11-28T16:28:41.953Z,24.65
2022-11-28T16:32:36.885Z,23.50
2022-11-28T16:36:35.738Z,27.15
2022-11-28T16:40:24.197Z,42.33
2022-11-28T16:44:13.319Z,38.22
2022-11-28T16:48:06.948Z,49.45
2022-11-28T16:51:50.151Z,40.33
2022-11-28T16:55:32.414Z,28.60
2022-11-28T16:59:19.090Z,18.38
2022-11-28T17:03:02.210Z,11.13
2022-11-28T17:06:43.975Z,10.23
2022-11-28T17:10:25.690Z,11.38
2022-11-28T17:14:13.140Z,19.48
2022-11-28T17:17:57.207Z,19.65
2022-11-28T17:21:57.849Z,19.98
2022-11-28T17:25:39.528Z,26.13
2022-11-28T17:29:21.506Z,19.80
2022-11-28T17:33:05.337Z,20.23
2022-11-28T17:40:36.679Z,21.45
2022-11-28T17:44:24.587Z,22.55
2022-11-28T17:48:07.841Z,23.67
2022-11-28T17:52:09.530Z,22.48
2022-11-28T17:55:58.980Z,24.90
2022-11-28T17:59:40.794Z,23.60
2022-11-28T18:03:22.676Z,22.55
2022-11-28T18:07:04.369Z,25.77
2022-11-28T18:10:46.120Z,28.17
2022-11-28T18:14:27.839Z,26.52
2022-11-28T18:18:10.324Z,19.63
2022-11-28T18:21:52.329Z,19.65
2022-11-28T18:25:34.049Z,13.55
2022-11-28T18:29:15.775Z,16.88
2022-11-28T18:32:58.626Z,27.55
2022-11-28T18:36:40.284Z,24.93
2022-11-28T18:40:22.135Z,22.67
2022-11-28T18:44:04.646Z,17.10
2022-11-28T18:47:46.360Z,18.98
2022-11-28T18:51:32.513Z,17.63
2022-11-28T18:55:15.633Z,20.95
2022-11-28T18:58:57.594Z,23.33
2022-11-28T19:02:39.547Z,16.70
2022-11-28T19:06:21.576Z,17.75
2022-11-28T19:10:03.471Z,18.35
2022-11-28T19:13:46.786Z,23.73
2022-11-28T19:17:28.481Z,13.95
2022-11-28T19:21:12.493Z,12.05
2022-11-28T19:24:54.266Z,8.43
2022-11-28T19:28:36.249Z,10.82
2022-11-28T19:32:19.101Z,9.52
2022-11-28T19:36:04.706Z,14.00
2022-11-28T19:39:46.862Z,22.63
2022-11-28T19:43:29.765Z,33.78
2022-11-28T19:47:11.430Z,32.13
2022-11-28T19:50:53.181Z,25.75
2022-11-28T19:54:37.116Z,23.67
2022-11-28T19:58:18.851Z,21.95
2022-11-28T20:02:02.586Z,21.52
2022-11-28T20:09:25.942Z,25.02
2022-11-28T20:13:07.805Z,30.52
2022-11-28T20:16:49.571Z,23.27
2022-11-28T20:20:32.669Z,18.23
2022-11-28T20:24:14.680Z,17.38
2022-11-28T20:27:56.893Z,20.77
2022-11-28T20:31:45.016Z,18.23
2022-11-28T20:35:27.531Z,16.83
2022-11-28T20:39:10.447Z,18.33
2022-11-28T20:42:53.304Z,16.53
2022-11-28T20:46:35.674Z,12.23
2022-11-28T20:50:17.552Z,17.10
2022-11-28T20:54:00.737Z,13.07
2022-11-28T20:57:42.557Z,15.80
2022-11-28T21:01:25.673Z,12.70
2022-11-28T21:05:07.729Z,12.73
2022-11-28T21:08:49.438Z,19.58
2022-11-28T21:13:09.072Z,10.80
2022-11-28T21:16:50.844Z,10.15
2022-11-28T21:20:32.586Z,18.15
2022-11-28T21:24:35.101Z,24.50
2022-11-28T21:28:16.774Z,35.90
2022-11-28T21:31:59.740Z,28.08
2022-11-28T21:35:41.769Z,30.33
2022-11-28T21:39:23.444Z,17.80
2022-11-28T21:43:06.342Z,19.13
2022-11-28T21:46:48.187Z,16.23
2022-11-28T21:50:29.945Z,16.88
2022-11-28T21:54:13.745Z,13.65
2022-11-28T22:01:38.419Z,14.13
2022-11-28T22:05:20.136Z,10.85
2022-11-28T22:09:08.322Z,11.65
2022-11-28T22:12:50.764Z,12.25
2022-11-28T22:16:33.314Z,10.38
2022-11-28T22:20:15.069Z,17.60
2022-11-28T22:23:58.917Z,18.98
2022-11-28T22:27:40.700Z,14.68
2022-11-28T22:31:22.692Z,10.85
2022-11-28T22:35:04.797Z,12.50
2022-11-28T22:38:46.859Z,30.67
2022-11-28T22:42:30.678Z,13.07
2022-11-28T22:49:54.083Z,9.02
2022-11-28T22:53:36.120Z,7.30
2022-11-28T22:57:17.905Z,8.38
2022-11-28T23:00:59.617Z,8.80
2022-11-28T23:04:41.828Z,7.90
2022-11-28T23:08:23.721Z,9.82
2022-11-28T23:12:07.577Z,13.65
2022-11-28T23:15:52.779Z,13.63
2022-11-28T23:19:34.842Z,13.10
2022-11-28T23:23:16.607Z,11.52
2022-11-28T23:26:58.363Z,9.98
2022-11-28T23:30:40.024Z,11.05
2022-11-28T23:34:23.719Z,9.90
2022-11-28T23:38:05.378Z,7.68
2022-11-28T23:41:47.136Z,11.07
2022-11-28T23:45:28.850Z,11.27
2022-11-28T23:49:10.930Z,19.05
2022-11-28T23:52:52.632Z,19.60
2022-11-28T23:56:35.296Z,17.30
